createdAt,value
2019-03-04T00:01:13.171Z,98996.40
2019-03-04T00:02:21.676Z,98988.44
2019-03-04T00:03:28.362Z,99002.47
2019-03-04T00:04:35.792Z,98999.78
2019-03-04T00:05:42.558Z,98994.13
2019-03-04T00:06:49.689Z,98986.77
2019-03-04T00:07:56.417Z,98987.42
2019-03-04T00:09:03.621Z,98960.45
2019-03-04T00:10:10.765Z,98976.24
2019-03-04T00:11:17.546Z,98974.23
2019-03-04T00:12:24.542Z,98977.44
2019-03-04T00:13:31.610Z,98981.29
2019-03-04T00:14:38.498Z,98974.75
2019-03-04T00:15:45.674Z,98970.81
2019-03-04T00:16:52.382Z,98973.30
2019-03-04T00:17:59.390Z,98961.83
2019-03-04T00:19:06.129Z,98977.70
2019-03-04T00:20:12.793Z,98974.11
2019-03-04T00:21:19.664Z,98975.86
2019-03-04T00:22:26.483Z,98964.30
2019-03-04T00:23:33.220Z,98965.03
2019-03-04T00:24:39.918Z,98954.33
2019-03-04T00:25:46.736Z,98966.53
2019-03-04T00:26:54.177Z,98962.94
2019-03-04T00:28:01.229Z,98968.72
2019-03-04T00:29:07.980Z,98964.31
2019-03-04T00:30:14.822Z,98976.59
2019-03-04T00:31:21.872Z,98961.19
2019-03-04T00:32:28.639Z,98948.25
2019-03-04T00:33:35.757Z,98946.41
2019-03-04T00:34:42.420Z,98936.78
2019-03-04T00:35:49.468Z,98939.99
2019-03-04T00:36:56.592Z,98935.58
2019-03-04T00:38:03.593Z,98934.77
2019-03-04T00:39:12.781Z,98931.20
2019-03-04T00:40:19.950Z,98937.25
2019-03-04T00:41:26.713Z,98932.75
2019-03-04T00:42:33.395Z,98933.13
2019-03-04T00:43:40.150Z,98922.66
2019-03-04T00:44:47.128Z,98927.06
2019-03-04T00:45:54.128Z,98921.36
2019-03-04T00:47:01.030Z,98916.61
2019-03-04T00:48:07.755Z,98898.41
2019-03-04T00:49:14.422Z,98908.60
2019-03-04T00:50:21.150Z,98899.27
2019-03-04T00:51:28.275Z,98892.55
2019-03-04T00:52:35.000Z,98890.92
2019-03-04T00:53:42.694Z,98889.98
2019-03-04T00:54:49.394Z,98888.06
2019-03-04T00:55:56.176Z,98875.69
2019-03-04T00:57:03.390Z,98878.55
2019-03-04T00:58:10.105Z,98881.63
2019-03-04T00:59:17.155Z,98879.78
2019-03-04T01:00:25.549Z,98882.73
2019-03-04T01:01:32.204Z,98884.83
2019-03-04T01:02:38.927Z,98872.20
2019-03-04T01:03:45.664Z,98859.23
2019-03-04T01:04:52.377Z,98859.70
2019-03-04T01:05:59.089Z,98861.45
2019-03-04T01:07:05.743Z,98855.13
2019-03-04T01:08:12.443Z,98855.59
2019-03-04T01:09:19.684Z,98851.36
2019-03-04T01:10:26.392Z,98854.95
2019-03-04T01:11:33.124Z,98858.08
2019-03-04T01:12:40.529Z,98854.58
2019-03-04T01:13:47.561Z,98856.33
2019-03-04T01:14:54.285Z,98849.00
2019-03-04T01:16:01.505Z,98859.63
2019-03-04T01:17:08.533Z,98847.41
2019-03-04T01:18:15.878Z,98839.23
2019-03-04T01:19:22.608Z,98854.66
2019-03-04T01:20:29.292Z,98854.94
2019-03-04T01:21:36.696Z,98860.98
2019-03-04T01:22:43.373Z,98871.27
2019-03-04T01:23:51.562Z,98864.93
2019-03-04T01:24:58.881Z,98864.11
2019-03-04T01:26:05.618Z,98839.61
2019-03-04T01:27:12.374Z,98844.75
2019-03-04T01:28:19.008Z,98845.31
2019-03-04T01:29:26.385Z,98848.31
2019-03-04T01:30:33.424Z,98838.05
2019-03-04T01:31:40.827Z,98843.30
2019-03-04T01:32:47.626Z,98837.79
2019-03-04T01:33:54.680Z,98830.55
2019-03-04T01:35:01.495Z,98831.11
2019-03-04T01:36:08.448Z,98813.78
2019-03-04T01:37:15.506Z,98807.36
2019-03-04T01:38:22.173Z,98806.98
2019-03-04T01:39:29.969Z,98814.50
2019-03-04T01:40:37.010Z,98804.39
2019-03-04T01:41:43.736Z,98803.17
2019-03-04T01:42:50.530Z,98790.24
2019-03-04T01:43:57.988Z,98797.86
2019-03-04T01:45:05.305Z,98790.50
2019-03-04T01:46:12.063Z,98794.47
2019-03-04T01:47:18.771Z,98804.47
2019-03-04T01:48:25.813Z,98800.70
2019-03-04T01:49:32.519Z,98801.98
2019-03-04T01:50:39.915Z,98790.80
2019-03-04T01:51:46.909Z,98785.20
2019-03-04T01:52:53.677Z,98789.52
2019-03-04T01:54:00.640Z,98774.73
2019-03-04T01:55:08.456Z,98763.42
2019-03-04T01:56:15.132Z,98783.26
2019-03-04T01:57:21.849Z,98770.59
2019-03-04T01:58:28.659Z,98769.97
2019-03-04T01:59:35.805Z,98762.48
2019-03-04T02:00:42.529Z,98754.86
2019-03-04T02:01:49.245Z,98751.29
2019-03-04T02:02:55.999Z,98739.38
2019-03-04T02:04:02.690Z,98728.73
2019-03-04T02:05:09.956Z,98734.25
2019-03-04T02:06:16.690Z,98721.13
2019-03-04T02:07:24.051Z,98725.82
2019-03-04T02:08:31.082Z,98737.81
2019-03-04T02:09:37.794Z,98728.58
2019-03-04T02:10:44.984Z,98726.26
2019-03-04T02:11:51.933Z,98737.09
2019-03-04T02:12:58.914Z,98711.31
2019-03-04T02:14:05.809Z,98706.56
2019-03-04T02:15:15.569Z,98700.57
2019-03-04T02:16:22.643Z,98684.91
2019-03-04T02:17:29.700Z,98682.59
2019-03-04T02:18:36.412Z,98682.16
2019-03-04T02:19:43.414Z,98661.95
2019-03-04T02:20:50.397Z,98675.08
2019-03-04T02:21:57.810Z,98672.85
2019-03-04T02:23:04.498Z,98667.16
2019-03-04T02:24:24.295Z,98676.14
2019-03-04T02:26:25.623Z,98669.00
2019-03-04T02:27:32.294Z,98655.25
2019-03-04T02:28:39.373Z,98665.34
2019-03-04T02:29:46.087Z,98676.42
2019-03-04T02:30:52.778Z,98673.20
2019-03-04T02:31:59.733Z,98668.50
2019-03-04T02:33:06.586Z,98681.00
2019-03-04T02:34:13.621Z,98676.77
2019-03-04T02:35:20.312Z,98674.33
2019-03-04T02:36:26.987Z,98664.71
2019-03-04T02:37:34.316Z,98667.56
2019-03-04T02:38:41.043Z,98668.16
2019-03-04T02:39:47.765Z,98651.31
2019-03-04T02:40:54.760Z,98649.11
2019-03-04T02:42:01.905Z,98642.06
2019-03-04T02:43:08.582Z,98642.63
2019-03-04T02:44:15.703Z,98630.92
2019-03-04T02:45:23.231Z,98616.42
2019-03-04T02:46:30.273Z,98619.84
2019-03-04T02:47:37.063Z,98621.56
2019-03-04T02:48:43.766Z,98618.34
2019-03-04T02:49:50.740Z,98627.42
2019-03-04T02:50:57.434Z,98625.88
2019-03-04T02:52:04.139Z,98628.83
2019-03-04T02:53:11.466Z,98620.00
2019-03-04T02:54:18.133Z,98619.91
2019-03-04T02:55:24.822Z,98611.64
2019-03-04T02:56:31.567Z,98601.46
2019-03-04T02:57:38.626Z,98600.27
2019-03-04T02:58:45.548Z,98606.69
2019-03-04T02:59:52.644Z,98596.17
2019-03-04T03:00:59.464Z,98578.20
2019-03-04T03:02:07.465Z,98569.84
2019-03-04T03:03:14.137Z,98566.80
2019-03-04T03:04:20.887Z,98564.48
2019-03-04T03:05:27.612Z,98567.77
2019-03-04T03:06:34.242Z,98562.20
2019-03-04T03:07:41.011Z,98545.41
2019-03-04T03:08:47.698Z,98548.07
2019-03-04T03:09:54.844Z,98554.73
2019-03-04T03:11:01.551Z,98552.64
2019-03-04T03:12:08.554Z,98538.14
2019-03-04T03:13:15.615Z,98544.47
2019-03-04T03:14:22.669Z,98547.13
2019-03-04T03:15:29.443Z,98550.31
2019-03-04T03:16:36.399Z,98545.09
2019-03-04T03:17:43.123Z,98528.50
2019-03-04T03:18:50.462Z,98535.86
2019-03-04T03:19:57.139Z,98543.19
2019-03-04T03:21:04.225Z,98539.09
2019-03-04T03:22:10.897Z,98527.88
2019-03-04T03:23:17.795Z,98518.50
2019-03-04T03:24:25.278Z,98524.83
2019-03-04T03:25:32.053Z,98521.78
2019-03-04T03:26:39.126Z,98506.00
2019-03-04T03:27:45.961Z,98496.92
2019-03-04T03:28:52.662Z,98499.14
2019-03-04T03:30:00.141Z,98493.88
2019-03-04T03:31:07.567Z,98480.12
2019-03-04T03:32:14.310Z,98482.13
2019-03-04T03:33:21.106Z,98485.88
2019-03-04T03:34:27.905Z,98474.22
2019-03-04T03:35:34.623Z,98477.98
2019-03-04T03:36:41.288Z,98465.70
2019-03-04T03:37:48.342Z,98456.34
2019-03-04T03:38:55.452Z,98458.45
2019-03-04T03:40:02.494Z,98457.62
2019-03-04T03:41:09.252Z,98453.27
2019-03-04T03:42:18.840Z,98453.94
2019-03-04T03:43:24.553Z,98452.55
2019-03-04T03:44:31.963Z,98443.32
2019-03-04T03:45:38.614Z,98458.73
2019-03-04T03:46:45.612Z,98469.81
2019-03-04T03:47:52.614Z,98417.41
2019-03-04T03:48:59.316Z,98456.64
2019-03-04T03:50:07.747Z,98444.03
2019-03-04T03:51:14.426Z,98446.42
2019-03-04T03:52:21.065Z,98442.70
2019-03-04T03:53:27.798Z,98434.02
2019-03-04T03:54:34.440Z,98439.05
2019-03-04T03:55:41.537Z,98437.87
2019-03-04T03:56:48.639Z,98443.94
2019-03-04T03:57:56.013Z,98432.68
2019-03-04T03:59:03.068Z,98435.00
2019-03-04T04:00:16.004Z,98425.64
2019-03-04T04:01:22.964Z,98424.06
2019-03-04T04:02:29.628Z,98426.27
2019-03-04T04:03:36.642Z,98428.92
2019-03-04T04:04:43.408Z,98411.33
2019-03-04T04:05:50.077Z,98415.62
2019-03-04T04:06:56.844Z,98423.22
2019-03-04T04:08:03.551Z,98413.05
2019-03-04T04:09:10.237Z,98408.95
2019-03-04T04:10:22.925Z,98405.67
2019-03-04T04:11:29.629Z,98399.73
2019-03-04T04:12:36.634Z,98400.34
2019-03-04T04:13:43.341Z,98397.30
2019-03-04T04:14:50.245Z,98392.98
2019-03-04T04:15:57.164Z,98386.56
2019-03-04T04:17:03.860Z,98370.14
2019-03-04T04:18:10.534Z,98375.52
2019-03-04T04:19:17.569Z,98363.96
2019-03-04T04:20:24.600Z,98349.60
2019-03-04T04:21:31.624Z,98354.27
2019-03-04T04:22:38.685Z,98346.46
2019-03-04T04:23:46.047Z,98349.94
2019-03-04T04:24:53.322Z,98341.56
2019-03-04T04:26:00.508Z,98358.25
2019-03-04T04:27:07.626Z,98356.27
2019-03-04T04:28:14.670Z,98348.92
2019-03-04T04:29:21.335Z,98347.98
2019-03-04T04:30:29.727Z,98352.41
2019-03-04T04:31:36.762Z,98342.61
2019-03-04T04:32:43.792Z,98331.63
2019-03-04T04:33:51.047Z,98335.11
2019-03-04T04:34:58.271Z,98338.16
2019-03-04T04:36:04.991Z,98320.18
2019-03-04T04:37:12.724Z,98313.52
2019-03-04T04:38:19.388Z,98307.58
2019-03-04T04:39:26.129Z,98306.39
2019-03-04T04:40:33.164Z,98299.06
2019-03-04T04:41:40.504Z,98298.11
2019-03-04T04:42:47.195Z,98299.64
2019-03-04T04:43:53.974Z,98303.48
2019-03-04T04:45:01.237Z,98300.92
2019-03-04T04:46:07.912Z,98304.77
2019-03-04T04:47:14.983Z,98285.86
2019-03-04T04:48:21.743Z,98287.98
2019-03-04T04:49:36.116Z,98286.91
2019-03-04T04:50:42.797Z,98271.30
2019-03-04T04:51:49.706Z,98271.02
2019-03-04T04:52:56.476Z,98248.39
2019-03-04T04:54:03.484Z,98254.91
2019-03-04T04:55:10.381Z,98247.42
2019-03-04T04:56:17.024Z,98245.32
2019-03-04T04:57:23.737Z,98239.85
2019-03-04T04:58:30.479Z,98242.42
2019-03-04T04:59:37.230Z,98246.38
2019-03-04T05:00:43.921Z,98248.56
2019-03-04T05:01:50.571Z,98235.52
2019-03-04T05:02:57.656Z,98230.29
2019-03-04T05:04:04.744Z,98231.70
2019-03-04T05:05:11.840Z,98237.07
2019-03-04T05:06:18.535Z,98238.25
2019-03-04T05:07:25.346Z,98237.07
2019-03-04T05:08:32.504Z,98236.16
2019-03-04T05:09:39.835Z,98233.70
2019-03-04T05:10:47.006Z,98245.62
2019-03-04T05:11:54.122Z,98242.20
2019-03-04T05:13:01.261Z,98243.05
2019-03-04T05:14:07.920Z,98241.89
2019-03-04T05:15:15.182Z,98240.84
2019-03-04T05:16:21.916Z,98238.27
2019-03-04T05:17:28.706Z,98231.05
2019-03-04T05:18:35.329Z,98232.91
2019-03-04T05:19:42.059Z,98222.64
2019-03-04T05:20:48.715Z,98220.88
2019-03-04T05:21:55.878Z,98226.22
2019-03-04T05:23:02.598Z,98225.89
2019-03-04T05:24:09.490Z,98221.83
2019-03-04T05:25:16.215Z,98212.47
2019-03-04T05:26:23.361Z,98209.09
2019-03-04T05:27:30.045Z,98201.60
2019-03-04T05:28:36.753Z,98200.19
2019-03-04T05:29:43.413Z,98195.16
2019-03-04T05:30:50.117Z,98193.50
2019-03-04T05:31:56.969Z,98190.36
2019-03-04T05:33:03.884Z,98185.48
2019-03-04T05:34:10.620Z,98183.40
2019-03-04T05:35:17.264Z,98173.57
2019-03-04T05:36:23.972Z,98168.22
2019-03-04T05:37:30.696Z,98165.55
2019-03-04T05:38:37.701Z,98175.61
2019-03-04T05:39:44.527Z,98163.00
2019-03-04T05:40:51.202Z,98157.39
2019-03-04T05:41:57.982Z,98155.77
2019-03-04T05:43:04.928Z,98140.70
2019-03-04T05:44:11.677Z,98145.16
2019-03-04T05:45:18.706Z,98137.23
2019-03-04T05:46:25.803Z,98137.46
2019-03-04T05:47:33.139Z,98128.47
2019-03-04T05:48:39.895Z,98133.87
2019-03-04T05:49:46.563Z,98132.69
2019-03-04T05:50:53.267Z,98123.70
2019-03-04T05:52:00.067Z,98118.67
2019-03-04T05:53:06.754Z,98119.63
2019-03-04T05:54:13.791Z,98123.59
2019-03-04T05:55:20.477Z,98119.26
2019-03-04T05:56:27.603Z,98117.97
2019-03-04T05:57:34.256Z,98114.70
2019-03-04T05:58:40.910Z,98114.35
2019-03-04T05:59:47.787Z,98111.56
2019-03-04T06:01:31.337Z,98111.78
2019-03-04T06:02:38.009Z,98126.37
2019-03-04T06:03:45.216Z,98117.66
2019-03-04T06:04:51.878Z,98110.64
2019-03-04T06:05:58.677Z,98114.93
2019-03-04T06:07:24.309Z,98105.83
2019-03-04T06:08:31.341Z,98078.05
2019-03-04T06:09:38.853Z,98090.42
2019-03-04T06:10:46.029Z,98087.63
2019-03-04T06:11:52.748Z,98077.91
2019-03-04T06:12:59.783Z,98085.65
2019-03-04T06:14:07.811Z,98095.44
2019-03-04T06:15:17.999Z,98086.08
2019-03-04T06:16:25.029Z,98088.91
2019-03-04T06:17:31.731Z,98091.69
2019-03-04T06:18:38.478Z,98081.05
2019-03-04T06:19:45.206Z,98074.63
2019-03-04T06:20:51.928Z,98080.94
2019-03-04T06:21:59.189Z,98085.15
2019-03-04T06:23:05.926Z,98086.65
2019-03-04T06:24:12.694Z,98088.53
2019-03-04T06:25:28.051Z,98092.38
2019-03-04T06:26:34.741Z,98084.46
2019-03-04T06:27:41.755Z,98083.28
2019-03-04T06:28:48.970Z,98080.02
2019-03-04T06:29:56.060Z,98082.33
2019-03-04T06:31:02.719Z,98077.41
2019-03-04T06:32:09.836Z,98081.50
2019-03-04T06:33:16.522Z,98066.91
2019-03-04T06:34:23.476Z,98074.27
2019-03-04T06:35:30.511Z,98071.23
2019-03-04T06:36:37.205Z,98057.70
2019-03-04T06:37:44.251Z,98070.97
2019-03-04T06:38:50.950Z,98066.19
2019-03-04T06:39:58.062Z,98072.34
2019-03-04T06:41:04.759Z,98064.31
2019-03-04T06:42:11.624Z,98064.20
2019-03-04T06:43:18.299Z,98071.20
2019-03-04T06:44:25.089Z,98068.27
2019-03-04T06:45:32.212Z,98067.36
2019-03-04T06:46:39.220Z,98066.41
2019-03-04T06:47:45.906Z,98067.36
2019-03-04T06:48:52.615Z,98072.59
2019-03-04T06:49:59.447Z,98112.58
2019-03-04T06:51:09.155Z,98149.72
2019-03-04T06:52:15.846Z,98170.50
2019-03-04T06:53:57.350Z,98160.20
2019-03-04T06:55:36.374Z,98171.01
2019-03-04T06:57:01.356Z,98164.36
2019-03-04T06:58:08.052Z,98144.38
2019-03-04T06:59:45.203Z,98151.80
2019-03-04T07:01:24.610Z,98168.47
2019-03-04T07:02:32.438Z,98177.08
2019-03-04T07:04:20.883Z,98185.06
2019-03-04T07:05:50.877Z,98197.40
2019-03-04T07:06:57.622Z,98173.59
2019-03-04T07:08:04.684Z,98178.84
2019-03-04T07:09:20.144Z,98199.53
2019-03-04T07:10:26.892Z,98208.27
2019-03-04T07:11:33.934Z,98199.38
2019-03-04T07:12:40.916Z,98206.66
2019-03-04T07:13:47.957Z,98204.06
2019-03-04T07:14:55.463Z,98208.85
2019-03-04T07:16:02.118Z,98204.68
2019-03-04T07:17:09.149Z,98211.66
2019-03-04T07:18:16.167Z,98211.35
2019-03-04T07:19:24.752Z,98222.00
2019-03-04T07:20:31.457Z,98214.51
2019-03-04T07:21:39.049Z,98224.03
2019-03-04T07:22:45.740Z,98225.30
2019-03-04T07:23:53.015Z,98222.48
2019-03-04T07:25:00.332Z,98205.01
2019-03-04T07:26:07.329Z,98205.92
2019-03-04T07:27:14.571Z,98200.09
2019-03-04T07:28:21.270Z,98194.54
2019-03-04T07:29:27.976Z,98183.54
2019-03-04T07:30:34.733Z,98212.22
2019-03-04T07:31:41.399Z,98192.20
2019-03-04T07:32:48.487Z,98201.42
2019-03-04T07:33:55.280Z,98203.51
2019-03-04T07:35:02.457Z,98197.14
2019-03-04T07:36:09.525Z,98188.15
2019-03-04T07:37:16.374Z,98171.52
2019-03-04T07:39:12.819Z,98187.97
2019-03-04T07:40:19.815Z,98180.32
2019-03-04T07:41:28.679Z,98193.11
2019-03-04T07:42:35.787Z,98195.58
2019-03-04T07:43:42.817Z,98193.11
2019-03-04T07:44:49.644Z,98188.78
2019-03-04T07:45:56.294Z,98200.80
2019-03-04T07:47:02.982Z,98185.89
2019-03-04T07:48:10.166Z,98187.91
2019-03-04T07:49:16.891Z,98181.00
2019-03-04T07:50:23.642Z,98184.66
2019-03-04T07:51:30.962Z,98181.50
2019-03-04T07:52:37.645Z,98184.41
2019-03-04T07:53:46.618Z,98176.98
2019-03-04T07:54:53.152Z,98189.92
2019-03-04T07:55:59.975Z,98187.65
2019-03-04T07:57:06.892Z,98187.14
2019-03-04T07:58:14.310Z,98189.58
2019-03-04T07:59:21.537Z,98191.62
2019-03-04T08:00:28.213Z,98189.80
2019-03-04T08:01:35.171Z,98192.70
2019-03-04T08:02:41.830Z,98186.59
2019-03-04T08:03:49.252Z,98186.86
2019-03-04T08:04:56.210Z,98174.30
2019-03-04T08:06:03.005Z,98183.42
2019-03-04T08:07:48.847Z,98174.20
2019-03-04T08:10:17.088Z,98179.83
2019-03-04T08:12:30.159Z,98187.86
2019-03-04T08:13:48.463Z,98182.22
2019-03-04T08:14:55.537Z,98175.50
2019-03-04T08:16:02.628Z,98178.32
2019-03-04T08:17:09.705Z,98179.74
2019-03-04T08:18:16.509Z,98174.37
2019-03-04T08:19:23.163Z,98171.38
2019-03-04T08:20:29.909Z,98174.50
2019-03-04T08:21:36.872Z,98174.80
2019-03-04T08:22:43.712Z,98165.33
2019-03-04T08:23:51.002Z,98171.79
2019-03-04T08:24:57.886Z,98156.75
2019-03-04T08:26:05.799Z,98165.05
2019-03-04T08:27:12.599Z,98157.70
2019-03-04T08:28:19.997Z,98161.88
2019-03-04T08:29:27.176Z,98159.08
2019-03-04T08:30:33.859Z,98149.98
2019-03-04T08:31:40.992Z,98162.45
2019-03-04T08:32:47.995Z,98158.81
2019-03-04T08:33:55.208Z,98156.02
2019-03-04T08:35:01.884Z,98156.74
2019-03-04T08:36:09.005Z,98146.45
2019-03-04T08:37:16.382Z,98150.45
2019-03-04T08:38:23.487Z,98150.20
2019-03-04T08:39:30.956Z,98153.83
2019-03-04T08:40:38.171Z,98149.48
2019-03-04T08:41:44.955Z,98149.20
2019-03-04T08:42:51.826Z,98147.84
2019-03-04T08:44:00.410Z,98137.97
2019-03-04T08:45:08.234Z,98144.73
2019-03-04T08:46:14.942Z,98145.20
2019-03-04T08:47:21.716Z,98148.85
2019-03-04T08:48:28.581Z,98148.39
2019-03-04T08:49:35.284Z,98152.56
2019-03-04T08:50:42.303Z,98155.03
2019-03-04T08:51:48.995Z,98156.77
2019-03-04T08:52:55.714Z,98141.63
2019-03-04T08:54:02.476Z,98141.08
2019-03-04T08:55:11.164Z,98148.30
2019-03-04T08:56:18.224Z,98151.67
2019-03-04T08:57:24.933Z,98161.41
2019-03-04T08:58:31.638Z,98153.76
2019-03-04T08:59:38.370Z,98158.31
2019-03-04T09:00:45.101Z,98172.73
2019-03-04T09:01:51.821Z,98161.33
2019-03-04T09:02:59.270Z,98159.33
2019-03-04T09:04:06.766Z,98154.78
2019-03-04T09:05:13.729Z,98143.47
2019-03-04T09:06:20.462Z,98159.98
2019-03-04T09:07:27.518Z,98150.58
2019-03-04T09:08:35.890Z,98151.30
2019-03-04T09:09:42.791Z,98162.16
2019-03-04T09:10:49.602Z,98150.95
2019-03-04T09:11:56.485Z,98149.77
2019-03-04T09:13:03.458Z,98170.20
2019-03-04T09:14:10.155Z,98165.53
2019-03-04T09:15:17.793Z,98171.48
2019-03-04T09:16:26.701Z,98160.80
2019-03-04T09:17:33.333Z,98172.67
2019-03-04T09:18:40.440Z,98186.34
2019-03-04T09:19:47.566Z,98179.41
2019-03-04T09:20:54.694Z,98184.42
2019-03-04T09:22:02.699Z,98179.60
2019-03-04T09:23:09.781Z,98198.83
2019-03-04T09:24:16.546Z,98195.70
2019-03-04T09:25:33.414Z,98185.94
2019-03-04T09:26:40.403Z,98196.22
2019-03-04T09:27:47.663Z,98193.02
2019-03-04T09:28:55.003Z,98194.84
2019-03-04T09:30:01.703Z,98198.65
2019-03-04T09:31:08.736Z,98191.70
2019-03-04T09:32:15.429Z,98194.72
2019-03-04T09:33:22.128Z,98204.84
2019-03-04T09:34:29.354Z,98211.20
2019-03-04T09:35:36.061Z,98208.80
2019-03-04T09:36:43.147Z,98216.30
2019-03-04T09:37:50.074Z,98204.63
2019-03-04T09:38:56.797Z,98201.42
2019-03-04T09:40:03.478Z,98210.05
2019-03-04T09:41:10.500Z,98217.13
2019-03-04T09:42:20.933Z,98221.12
2019-03-04T09:43:27.719Z,98221.81
2019-03-04T09:44:34.429Z,98219.13
2019-03-04T09:45:41.163Z,98222.48
2019-03-04T09:46:47.881Z,98201.63
2019-03-04T09:47:55.011Z,98212.02
2019-03-04T09:49:01.726Z,98236.08
2019-03-04T09:50:12.547Z,98241.71
2019-03-04T09:51:24.475Z,98243.25
2019-03-04T09:52:29.226Z,98243.32
2019-03-04T09:53:39.474Z,98248.37
2019-03-04T09:54:44.914Z,98242.16
2019-03-04T09:55:51.618Z,98248.98
2019-03-04T09:56:58.348Z,98260.17
2019-03-04T09:58:06.731Z,98260.67
2019-03-04T09:59:13.394Z,98266.69
2019-03-04T10:01:02.153Z,98273.06
2019-03-04T10:02:16.749Z,98269.98
2019-03-04T10:04:23.981Z,98248.34
2019-03-04T10:06:07.896Z,98257.52
2019-03-04T10:07:57.496Z,98273.61
2019-03-04T10:09:56.114Z,98286.22
2019-03-04T10:11:49.189Z,98297.55
2019-03-04T10:13:54.801Z,98308.55
2019-03-04T10:15:47.047Z,98314.53
2019-03-04T10:17:34.346Z,98306.86
2019-03-04T10:20:03.983Z,98320.92
2019-03-04T10:21:51.010Z,98329.98
2019-03-04T10:23:56.401Z,98339.33
2019-03-04T10:25:34.718Z,98336.94
2019-03-04T10:27:42.167Z,98339.94
2019-03-04T10:29:28.066Z,98339.86
2019-03-04T10:31:28.181Z,98339.94
2019-03-04T10:33:48.681Z,98344.58
2019-03-04T10:35:30.575Z,98342.33
2019-03-04T10:37:47.816Z,98356.19
2019-03-04T10:39:50.962Z,98352.16
2019-03-04T10:41:51.111Z,98358.95
2019-03-04T10:44:19.556Z,98359.42
2019-03-04T10:46:11.791Z,98360.69
2019-03-04T10:47:18.861Z,98364.72
2019-03-04T10:48:25.581Z,98371.09
2019-03-04T10:49:36.197Z,98379.34
2019-03-04T10:50:42.856Z,98371.69
2019-03-04T10:51:49.889Z,98368.75
2019-03-04T10:52:56.916Z,98375.03
2019-03-04T10:54:03.988Z,98384.84
2019-03-04T10:55:12.351Z,98381.62
2019-03-04T10:56:19.377Z,98392.42
2019-03-04T10:57:26.366Z,98382.08
2019-03-04T10:58:33.092Z,98384.76
2019-03-04T10:59:39.785Z,98388.59
2019-03-04T11:00:47.232Z,98392.73
2019-03-04T11:01:54.712Z,98398.13
2019-03-04T11:03:01.764Z,98400.84
2019-03-04T11:04:08.610Z,98399.72
2019-03-04T11:05:15.994Z,98405.34
2019-03-04T11:06:23.088Z,98405.03
2019-03-04T11:07:29.746Z,98399.92
2019-03-04T11:08:36.530Z,98410.97
2019-03-04T11:09:43.274Z,98418.44
2019-03-04T11:10:49.979Z,98419.25
2019-03-04T11:11:56.683Z,98415.36
2019-03-04T11:13:03.815Z,98423.17
2019-03-04T11:14:11.064Z,98410.80
2019-03-04T11:15:21.776Z,98416.70
2019-03-04T11:16:28.793Z,98422.75
2019-03-04T11:17:36.178Z,98416.42
2019-03-04T11:18:42.885Z,98407.64
2019-03-04T11:19:49.602Z,98420.06
2019-03-04T11:20:56.546Z,98411.59
2019-03-04T11:22:03.317Z,98412.73
2019-03-04T11:23:10.416Z,98416.23
2019-03-04T11:24:17.701Z,98407.59
2019-03-04T11:25:24.589Z,98412.94
2019-03-04T11:26:31.296Z,98411.28
2019-03-04T11:27:37.990Z,98414.74
2019-03-04T11:28:44.763Z,98420.87
2019-03-04T11:29:51.706Z,98415.44
2019-03-04T11:30:58.925Z,98421.84
2019-03-04T11:32:06.291Z,98424.98
2019-03-04T11:33:12.931Z,98430.69
2019-03-04T11:34:19.944Z,98421.16
2019-03-04T11:35:26.644Z,98432.88
2019-03-04T11:36:33.844Z,98420.42
2019-03-04T11:37:40.605Z,98427.72
2019-03-04T11:38:58.762Z,98430.94
2019-03-04T11:40:11.550Z,98418.67
2019-03-04T11:41:21.871Z,98421.67
2019-03-04T11:42:28.614Z,98428.31
2019-03-04T11:43:35.302Z,98428.56
2019-03-04T11:44:42.294Z,98434.12
2019-03-04T11:45:49.005Z,98430.58
2019-03-04T11:46:55.829Z,98426.18
2019-03-04T11:48:02.469Z,98432.95
2019-03-04T11:49:09.517Z,98431.06
2019-03-04T11:50:16.801Z,98429.41
2019-03-04T11:51:23.675Z,98440.09
2019-03-04T11:52:30.398Z,98437.67
2019-03-04T11:53:37.198Z,98450.27
2019-03-04T11:54:43.998Z,98453.11
2019-03-04T11:55:50.812Z,98444.84
2019-03-04T11:56:57.574Z,98449.80
2019-03-04T11:58:04.253Z,98454.96
2019-03-04T11:59:10.953Z,98453.69
2019-03-04T12:00:26.032Z,98449.45
2019-03-04T12:01:40.638Z,98456.02
2019-03-04T12:02:47.483Z,98458.42
2019-03-04T12:03:54.306Z,98460.36
2019-03-04T12:05:01.356Z,98462.89
2019-03-04T12:06:09.443Z,98458.38
2019-03-04T12:07:16.616Z,98468.55
2019-03-04T12:08:23.359Z,98469.15
2019-03-04T12:09:30.387Z,98460.99
2019-03-04T12:10:37.473Z,98460.67
2019-03-04T12:11:44.232Z,98473.45
2019-03-04T12:12:51.605Z,98477.47
2019-03-04T12:13:58.358Z,98474.91
2019-03-04T12:15:06.119Z,98479.70
2019-03-04T12:16:12.834Z,98483.05
2019-03-04T12:17:19.864Z,98479.65
2019-03-04T12:18:26.652Z,98484.14
2019-03-04T12:19:33.759Z,98489.28
2019-03-04T12:20:40.951Z,98480.31
2019-03-04T12:21:48.322Z,98488.39
2019-03-04T12:22:55.052Z,98494.77
2019-03-04T12:24:03.192Z,98483.28
2019-03-04T12:25:13.639Z,98490.45
2019-03-04T12:26:20.483Z,98507.55
2019-03-04T12:27:27.522Z,98502.73
2019-03-04T12:28:34.273Z,98493.62
2019-03-04T12:29:41.022Z,98498.41
2019-03-04T12:30:47.835Z,98494.36
2019-03-04T12:32:01.984Z,98507.55
2019-03-04T12:33:09.490Z,98504.86
2019-03-04T12:34:24.946Z,98507.62
2019-03-04T12:35:31.905Z,98509.08
2019-03-04T12:36:39.238Z,98501.27
2019-03-04T12:37:46.422Z,98495.44
2019-03-04T12:38:53.506Z,98510.80
2019-03-04T12:40:00.663Z,98506.47
2019-03-04T12:41:07.454Z,98503.56
2019-03-04T12:42:14.563Z,98504.34
2019-03-04T12:43:21.309Z,98504.33
2019-03-04T12:44:28.426Z,98501.30
2019-03-04T12:45:35.183Z,98504.94
2019-03-04T12:46:41.887Z,98507.66
2019-03-04T12:47:48.827Z,98513.86
2019-03-04T12:48:55.490Z,98517.88
2019-03-04T12:50:02.330Z,98506.55
2019-03-04T12:51:09.117Z,98519.78
2019-03-04T12:52:17.088Z,98515.87
2019-03-04T12:53:24.171Z,98513.39
2019-03-04T12:54:31.039Z,98520.54
2019-03-04T12:55:38.142Z,98508.83
2019-03-04T12:56:44.954Z,98517.25
2019-03-04T12:57:51.816Z,98516.56
2019-03-04T12:58:58.716Z,98520.09
2019-03-04T13:00:08.882Z,98530.81
2019-03-04T13:01:16.314Z,98531.83
2019-03-04T13:02:23.110Z,98540.44
2019-03-04T13:03:30.003Z,98545.98
2019-03-04T13:04:36.758Z,98546.53
2019-03-04T13:05:43.554Z,98547.59
2019-03-04T13:06:51.043Z,98547.78
2019-03-04T13:07:57.769Z,98548.40
2019-03-04T13:09:14.163Z,98547.38
2019-03-04T13:10:15.243Z,98550.91
2019-03-04T13:11:22.593Z,98552.37
2019-03-04T13:12:29.309Z,98557.23
2019-03-04T13:13:36.006Z,98565.41
2019-03-04T13:14:43.037Z,98553.38
2019-03-04T13:15:52.680Z,98564.88
2019-03-04T13:16:59.479Z,98556.42
2019-03-04T13:18:09.070Z,98571.45
2019-03-04T13:19:17.355Z,98567.70
2019-03-04T13:20:24.263Z,98581.89
2019-03-04T13:21:30.963Z,98585.50
2019-03-04T13:22:38.012Z,98580.14
2019-03-04T13:23:45.105Z,98575.30
2019-03-04T13:24:51.830Z,98583.85
2019-03-04T13:25:58.685Z,98593.27
2019-03-04T13:27:05.575Z,98583.95
2019-03-04T13:28:12.767Z,98590.62
2019-03-04T13:29:19.506Z,98595.92
2019-03-04T13:30:26.231Z,98588.49
2019-03-04T13:31:33.286Z,98589.27
2019-03-04T13:32:40.367Z,98598.00
2019-03-04T13:33:47.063Z,98602.14
2019-03-04T13:34:53.802Z,98604.03
2019-03-04T13:36:00.922Z,98601.25
2019-03-04T13:37:07.951Z,98601.45
2019-03-04T13:38:14.697Z,98611.80
2019-03-04T13:39:21.393Z,98605.82